Time;durP1;ratioP1;P1;durP2;ratioP2;P2;SDS_P1;SDS_P2;PMS_P1;PMS_P2;Temp;Humidity;BMP_temperature;BMP_pressure;BME280_temperature;BME280_humidity;BME280_pressure;Samples;Min_cycle;Max_cycle;Signal;HPM_P1;HPM_P2
2022/05/29 00:01:16;;;;;;;;;;;;;;;12.58;65.83;99989.28;1743105;82;21117;-69
2022/05/29 00:03:43;;;;;;;1.17;0.50;;;;;;;12.64;65.87;99991.63;1734111;82;20187;-68
2022/05/29 00:06:12;;;;;;;0.80;0.50;;;;;;;12.65;66.04;100002.61;1739649;82;21081;-68
2022/05/29 00:08:43;;;;;;;0.95;0.50;;;;;;;12.70;65.77;100004.67;1747291;82;21037;-70
2022/05/29 00:11:13;;;;;;;0.78;0.45;;;;;;;12.77;65.42;100001.44;1734302;82;21110;-69
2022/05/29 00:13:42;;;;;;;0.50;0.47;;;;;;;12.83;65.31;100005.44;1742296;82;21471;-68
2022/05/29 00:16:08;;;;;;;1.85;0.30;;;;;;;12.90;65.18;100000.05;1747858;82;21054;-68
2022/05/29 00:18:36;;;;;;;2.37;0.30;;;;;;;12.94;65.01;100006.64;1747192;82;21022;-70
2022/05/29 00:21:02;;;;;;;1.27;0.40;;;;;;;12.98;64.70;100009.72;1747561;82;21053;-69
2022/05/29 00:23:30;;;;;;;0.75;0.50;;;;;;;12.98;64.78;100007.05;1747624;82;21049;-71
2022/05/29 00:25:57;;;;;;;1.37;0.50;;;;;;;12.94;64.80;99999.95;1732971;82;21081;-72
2022/05/29 00:28:23;;;;;;;1.12;0.55;;;;;;;12.90;64.89;99988.54;1728638;82;21285;-70
2022/05/29 00:30:50;;;;;;;3.42;0.40;;;;;;;12.92;64.82;99992.66;1747147;82;21002;-69
2022/05/29 00:33:16;;;;;;;0.88;0.40;;;;;;;12.93;64.81;99995.63;1746867;82;21081;-68
2022/05/29 00:35:43;;;;;;;;;;;;;;;12.94;64.99;99997.28;1748410;81;21006;-69
2022/05/29 00:38:12;;;;;;;0.75;0.35;;;;;;;12.94;64.89;100000.45;1745648;82;20146;-69
2022/05/29 00:41:01;;;;;;;1.42;0.40;;;;;;;12.88;65.07;99994.09;1747208;82;20978;-68
2022/05/29 00:43:28;;;;;;;1.35;0.60;;;;;;;12.91;65.07;99985.66;1741467;82;20999;-69
2022/05/29 00:46:00;;;;;;;1.70;0.90;;;;;;;12.94;65.13;99987.08;1743302;82;21054;-70
2022/05/29 00:48:27;;;;;;;0.90;0.53;;;;;;;12.94;65.40;99989.25;1746617;82;20998;-69
2022/05/29 00:51:00;;;;;;;1.15;0.57;;;;;;;12.93;65.42;99986.27;1744390;82;21062;-69
2022/05/29 00:53:30;;;;;;;1.75;0.42;;;;;;;12.94;65.29;99990.59;1747506;82;21031;-69
2022/05/29 00:56:02;;;;;;;3.08;0.40;;;;;;;12.93;65.38;99983.59;1747542;82;21494;-69
2022/05/29 00:58:29;;;;;;;1.35;0.60;;;;;;;12.95;65.45;99980.70;1746919;82;21590;-74
2022/05/29 01:00:57;;;;;;;1.62;0.57;;;;;;;12.97;65.34;99982.65;1739810;82;21537;-69
2022/05/29 01:03:23;;;;;;;2.50;0.60;;;;;;;12.99;65.27;99986.74;1729741;82;21005;-69
2022/05/29 01:05:49;;;;;;;2.70;0.65;;;;;;;12.98;63.99;99991.80;1746840;82;21380;-70
2022/05/29 01:08:20;;;;;;;0.93;0.57;;;;;;;12.94;63.69;99993.27;1742131;82;21105;-71
2022/05/29 01:10:58;;;;;;;2.85;0.72;;;;;;;12.90;63.61;99998.72;1747555;82;21053;-69
2022/05/29 01:13:42;;;;;;;0.40;0.30;;;;;;;12.84;63.83;99998.23;1736867;82;21011;-70
2022/05/29 01:16:17;;;;;;;1.15;0.30;;;;;;;12.80;64.03;99999.16;1744799;82;21006;-69
2022/05/29 01:19:19;;;;;;;1.25;0.40;;;;;;;12.78;64.38;100005.77;1747809;82;21129;-69
2022/05/29 01:22:12;;;;;;;1.45;0.47;;;;;;;12.78;64.52;100007.11;1747544;82;21382;-68
2022/05/29 01:25:05;;;;;;;2.22;0.25;;;;;;;12.76;64.70;100007.84;1726593;82;21425;-69
2022/05/29 01:28:14;;;;;;;1.10;0.55;;;;;;;12.75;64.46;100006.18;1683780;83;21763;-70
2022/05/29 01:31:01;;;;;;;1.22;0.30;;;;;;;12.77;63.99;100006.30;1682905;84;21030;-69
2022/05/29 01:33:48;;;;;;;3.85;0.88;;;;;;;12.79;63.97;100003.38;1687715;83;21049;-70
2022/05/29 01:36:18;;;;;;;;;;;;;;;12.76;63.72;100011.84;1732016;82;21037;-68
2022/05/29 01:38:53;;;;;;;1.10;0.57;;;;;;;12.74;64.07;100014.73;1743809;82;20107;-69
2022/05/29 01:41:40;;;;;;;1.65;0.47;;;;;;;12.68;64.71;100013.39;1734439;81;21451;-69
2022/05/29 01:44:21;;;;;;;2.37;0.60;;;;;;;12.66;65.11;100014.44;1746954;82;21557;-68
2022/05/29 01:46:52;;;;;;;1.87;0.90;;;;;;;12.66;64.68;100023.80;1747761;82;21482;-69
2022/05/29 01:49:30;;;;;;;1.60;1.20;;;;;;;12.64;64.92;100026.39;1747040;82;21022;-71
2022/05/29 01:52:24;;;;;;;3.30;1.67;;;;;;;12.64;64.74;100029.88;1735026;82;21050;-70
2022/05/29 01:55:05;;;;;;;1.50;1.17;;;;;;;12.64;64.78;100035.22;1746834;82;21011;-69
2022/05/29 01:57:37;;;;;;;2.85;1.07;;;;;;;12.63;64.89;100036.23;1747688;82;21597;-71
2022/05/29 02:00:14;;;;;;;1.45;1.00;;;;;;;12.62;64.98;100031.94;1747773;82;20993;-70
2022/05/29 02:02:56;;;;;;;2.33;0.90;;;;;;;12.60;65.11;100029.99;1743622;82;21015;-69
2022/05/29 02:05:31;;;;;;;2.62;1.20;;;;;;;12.60;65.27;100019.79;1744675;82;20995;-69
2022/05/29 02:08:16;;;;;;;1.77;1.50;;;;;;;12.55;65.95;100020.95;1713486;82;20994;-69
2022/05/29 02:10:52;;;;;;;3.17;1.10;;;;;;;12.53;66.84;100030.52;1742586;82;21061;-69
2022/05/29 02:13:26;;;;;;;1.10;0.95;;;;;;;12.46;67.56;100039.87;1747806;82;21065;-69
2022/05/29 02:16:04;;;;;;;2.15;1.40;;;;;;;12.43;67.58;100037.63;1734549;82;21538;-69
2022/05/29 02:18:57;;;;;;;2.98;1.20;;;;;;;12.41;67.99;100041.52;1735053;82;21029;-72
2022/05/29 02:21:41;;;;;;;2.15;0.95;;;;;;;12.39;67.85;100051.08;1735862;82;21531;-69
2022/05/29 02:24:17;;;;;;;2.45;0.70;;;;;;;12.38;67.72;100052.12;1733112;82;20978;-69
2022/05/29 02:26:52;;;;;;;9.50;1.13;;;;;;;12.38;67.48;100055.32;1744745;82;21007;-69
2022/05/29 02:29:18;;;;;;;1.42;0.88;;;;;;;12.38;67.65;100059.33;1734925;82;20987;-68
2022/05/29 02:32:01;;;;;;;0.95;0.85;;;;;;;12.37;67.91;100056.33;1723535;82;21002;-73
2022/05/29 02:34:45;;;;;;;0.75;0.50;;;;;;;12.39;67.50;100059.62;1744650;82;21022;-68
2022/05/29 02:37:44;;;;;;;2.02;0.30;;;;;;;12.38;67.50;100068.16;1732749;82;22251;-71
2022/05/29 02:40:28;;;;;;;1.50;0.42;;;;;;;12.41;67.55;100069.09;1726935;82;21117;-69
2022/05/29 02:43:15;;;;;;;1.42;0.57;;;;;;;12.44;67.56;100057.16;1747527;82;21046;-69
2022/05/29 02:45:54;;;;;;;1.65;0.75;;;;;;;12.47;67.48;100067.45;1732394;82;21061;-70
2022/05/29 02:48:47;;;;;;;4.35;0.40;;;;;;;12.48;66.83;100073.08;1747334;82;21496;-69
2022/05/29 02:51:25;;;;;;;2.58;0.50;;;;;;;12.49;65.82;100073.89;1733769;82;21038;-69
2022/05/29 02:53:51;;;;;;;1.30;0.42;;;;;;;12.52;64.79;100075.64;1742147;82;21030;-69
2022/05/29 02:56:17;;;;;;;2.37;0.40;;;;;;;12.56;63.96;100070.70;1737959;82;20990;-69
2022/05/29 02:58:49;;;;;;;0.82;0.40;;;;;;;12.56;63.96;100070.70;1733873;82;21111;-69
2022/05/29 03:01:43;;;;;;;0.33;0.13;;;;;;;12.56;63.97;100074.19;1746999;82;21026;-69
2022/05/29 03:04:34;;;;;;;0.40;0.17;;;;;;;12.59;63.62;100073.79;1729868;82;21143;-69
2022/05/29 03:07:23;;;;;;;0.42;0.42;;;;;;;12.57;62.87;100062.48;1745323;82;21487;-70
2022/05/29 03:09:58;;;;;;;0.65;0.20;;;;;;;12.57;62.75;100059.81;1747916;82;21086;-70
2022/05/29 03:12:57;;;;;;;0.93;0.10;;;;;;;12.57;62.97;100057.13;1746905;82;21001;-69
2022/05/29 03:15:52;;;;;;;0.30;0.20;;;;;;;12.56;62.91;100059.48;1747656;82;21014;-69
2022/05/29 03:18:36;;;;;;;0.20;0.20;;;;;;;12.50;63.27;100063.00;1746690;82;21089;-72
2022/05/29 03:21:24;;;;;;;2.22;0.20;;;;;;;12.45;63.64;100059.62;1734856;82;21046;-70
2022/05/29 03:24:05;;;;;;;1.10;0.33;;;;;;;12.42;63.76;100053.87;1741265;82;21041;-68
2022/05/29 03:26:57;;;;;;;0.70;0.20;;;;;;;12.42;64.17;100053.87;1738848;82;21050;-70
2022/05/29 03:29:44;;;;;;;3.02;0.40;;;;;;;12.41;64.57;100042.86;1716656;82;21041;-70
2022/05/29 03:32:11;;;;;;;1.20;0.15;;;;;;;12.36;64.04;100046.16;1735879;82;21066;-68
2022/05/29 03:34:39;;;;;;;0.65;0.30;;;;;;;12.32;64.33;100061.47;1747567;82;21042;-70
2022/05/29 03:40:16;;;;;;;0.80;0.23;;;;;;;12.37;64.72;100074.52;1800566;78;22744;-69
2022/05/29 03:42:42;;;;;;;0.35;0.20;;;;;;;12.36;64.78;100073.41;1777735;79;21082;-69
2022/05/29 03:45:10;;;;;;;0.20;0.10;;;;;;;12.38;64.94;100074.84;1757568;80;21029;-69
2022/05/29 03:47:38;;;;;;;2.15;0.30;;;;;;;12.38;64.10;100068.16;1722092;83;21048;-69
2022/05/29 03:50:09;;;;;;;0.50;0.10;;;;;;;12.40;64.50;100070.11;1717250;82;20996;-69
2022/05/29 03:52:37;;;;;;;1.57;0.20;;;;;;;12.45;65.06;100074.33;1712486;83;21081;-68
2022/05/29 03:55:05;;;;;;;0.55;0.10;;;;;;;12.55;64.42;100079.77;1698195;84;21031;-69
2022/05/29 03:57:31;;;;;;;0.40;0.10;;;;;;;12.62;63.99;100086.75;1674791;84;21029;-70
2022/05/29 03:59:58;;;;;;;0.78;0.35;;;;;;;12.68;63.99;100085.59;1673599;84;21018;-70
2022/05/29 04:02:24;;;;;;;1.22;0.20;;;;;;;12.73;63.37;100087.13;1675082;84;21010;-69
2022/05/29 04:04:50;;;;;;;1.00;0.10;;;;;;;12.80;63.33;100095.97;1687790;84;21025;-75
2022/05/29 04:07:16;;;;;;;0.40;0.10;;;;;;;12.84;62.47;100098.53;1660900;84;21578;-70
2022/05/29 04:12:30;;;;;;;0.20;0.10;;;;;;;12.94;62.31;100107.45;1663676;84;21081;-70
2022/05/29 04:14:57;;;;;;;2.85;0.65;;;;;;;12.95;61.87;100107.25;1704457;83;21054;-70
2022/05/29 04:17:23;;;;;;;0.90;0.10;;;;;;;12.96;61.96;100108.06;1683053;85;21126;-71
2022/05/29 04:19:50;;;;;;;1.57;0.30;;;;;;;13.00;61.54;100108.79;1679937;84;21051;-70
2022/05/29 04:22:22;;;;;;;0.75;0.10;;;;;;;13.10;61.26;100107.53;1676579;84;21615;-70
2022/05/29 04:24:48;;;;;;;0.93;0.40;;;;;;;13.28;60.95;100111.70;1698771;84;21205;-70
2022/05/29 04:27:16;;;;;;;0.95;0.13;;;;;;;13.74;60.57;100112.02;1695589;85;21022;-70
2022/05/29 04:29:43;;;;;;;0.35;0.30;;;;;;;14.38;58.83;100107.98;1681979;83;21048;-70
2022/05/29 04:34:58;;;;;;;0.93;0.53;;;;;;;15.68;53.60;100108.36;1688218;84;21290;-70
2022/05/29 04:37:28;;;;;;;3.33;0.35;;;;;;;15.90;52.99;100113.27;1704511;84;21132;-70
2022/05/29 04:39:55;;;;;;;0.62;0.20;;;;;;;15.89;52.71;100110.28;1706970;84;21109;-69
2022/05/29 04:42:22;;;;;;;2.65;0.60;;;;;;;15.81;52.44;100115.45;1709182;83;21014;-73
2022/05/29 04:44:49;;;;;;;2.15;0.10;;;;;;;15.63;52.21;100121.64;1697508;83;21141;-71
2022/05/29 04:47:15;;;;;;;1.37;0.20;;;;;;;15.63;52.67;100122.98;1675214;84;21014;-71
2022/05/29 04:49:42;;;;;;;1.37;0.10;;;;;;;16.05;51.85;100125.77;1679001;85;21041;-73
2022/05/29 04:52:10;;;;;;;1.32;0.10;;;;;;;16.19;50.67;100124.22;1691448;83;21030;-71
2022/05/29 04:54:39;;;;;;;1.50;0.17;;;;;;;16.06;50.93;100120.66;1678730;84;21002;-70
2022/05/29 04:57:09;;;;;;;0.95;0.10;;;;;;;16.05;51.44;100131.14;1674183;85;20979;-69
2022/05/29 04:59:37;;;;;;;0.55;0.30;;;;;;;16.04;51.73;100125.45;1674464;85;21594;-71
2022/05/29 05:02:05;;;;;;;0.30;0.10;;;;;;;15.99;50.61;100128.00;1713729;83;20987;-70
2022/05/29 05:04:31;;;;;;;3.15;0.10;;;;;;;15.88;50.81;100126.94;1704172;83;21122;-69
2022/05/29 05:06:59;;;;;;;0.10;0.10;;;;;;;15.88;50.47;100132.31;1694903;83;21631;-70
2022/05/29 05:09:26;;;;;;;0.78;0.08;;;;;;;15.94;50.81;100131.39;1699132;84;21017;-70
2022/05/29 05:11:54;;;;;;;0.70;0.10;;;;;;;16.06;50.22;100134.11;1692129;84;21614;-70
2022/05/29 05:14:25;;;;;;;0.57;0.17;;;;;;;16.01;48.65;100142.06;1679327;84;21128;-72
2022/05/29 05:16:56;;;;;;;0.47;0.10;;;;;;;15.86;48.46;100142.97;1656159;84;21508;-70
2022/05/29 05:19:23;;;;;;;0.23;0.10;;;;;;;15.70;48.76;100136.34;1682514;82;21566;-70
2022/05/29 05:21:49;;;;;;;2.02;0.30;;;;;;;15.64;49.17;100135.39;1700948;83;21002;-72
2022/05/29 05:24:17;;;;;;;1.92;0.20;;;;;;;15.61;49.53;100138.52;1672759;84;21598;-71
2022/05/29 05:26:45;;;;;;;0.50;0.20;;;;;;;15.64;50.05;100140.77;1672877;84;21144;-69
2022/05/29 05:29:14;;;;;;;0.35;0.23;;;;;;;15.76;50.26;100140.34;1676873;84;21071;-71
2022/05/29 05:31:41;;;;;;;0.50;0.30;;;;;;;15.89;49.55;100143.34;1674599;84;21496;-70
2022/05/29 05:34:08;;;;;;;1.15;0.20;;;;;;;15.87;49.78;100144.09;1679760;84;21098;-73
2022/05/29 05:36:34;;;;;;;0.40;0.10;;;;;;;15.88;50.48;100148.94;1674869;84;21073;-71
2022/05/29 05:39:00;;;;;;;1.47;0.10;;;;;;;15.87;49.72;100148.66;1673770;84;21553;-70
2022/05/29 05:41:26;;;;;;;0.55;0.10;;;;;;;15.94;51.07;100144.83;1699884;82;21039;-70
2022/05/29 05:43:52;;;;;;;;;;;;;;;16.33;50.29;100138.57;1700674;82;21620;-71
2022/05/29 05:46:19;;;;;;;0.42;0.10;;;;;;;16.88;48.85;100137.47;1716785;83;20212;-74
2022/05/29 05:48:46;;;;;;;0.53;0.10;;;;;;;17.29;47.62;100146.95;1715700;82;21180;-71
2022/05/29 05:51:13;;;;;;;0.13;0.10;;;;;;;17.72;46.43;100147.00;1716844;83;21006;-70
2022/05/29 05:53:41;;;;;;;0.57;0.10;;;;;;;18.43;42.43;100138.05;1716237;83;21572;-71
2022/05/29 05:56:12;;;;;;;0.78;0.20;;;;;;;18.43;42.43;100138.05;1708973;82;21046;-71
2022/05/29 05:58:42;;;;;;;1.10;0.30;;;;;;;18.64;42.08;100135.67;1713115;82;21126;-70
2022/05/29 06:01:16;;;;;;;1.60;0.10;;;;;;;18.88;43.45;100143.62;1695428;82;21620;-70
2022/05/29 06:03:43;;;;;;;0.20;0.20;;;;;;;19.28;42.67;100140.65;1665272;84;21058;-71
2022/05/29 06:06:10;;;;;;;0.50;0.10;;;;;;;19.64;41.58;100137.83;1665374;84;21488;-71
2022/05/29 06:08:36;;;;;;;0.45;0.10;;;;;;;19.94;39.92;100137.91;1648317;84;21071;-70
2022/05/29 06:11:04;;;;;;;1.17;0.10;;;;;;;20.07;38.64;100140.75;1652159;84;21077;-72
2022/05/29 06:13:30;;;;;;;0.30;0.10;;;;;;;20.19;39.45;100142.77;1692273;83;20974;-71
2022/05/29 06:16:03;;;;;;;1.20;0.10;;;;;;;20.34;37.01;100139.38;1686539;83;21506;-71
2022/05/29 06:18:30;;;;;;;0.40;0.10;;;;;;;20.41;37.52;100134.55;1678061;83;21595;-72
2022/05/29 06:21:02;;;;;;;0.88;0.10;;;;;;;20.22;36.66;100129.25;1687505;83;21025;-72
2022/05/29 06:23:29;;;;;;;1.27;0.10;;;;;;;19.96;38.07;100137.12;1691426;83;21116;-75
2022/05/29 06:25:55;;;;;;;0.80;0.10;;;;;;;19.89;37.09;100132.98;1652713;85;21054;-73
2022/05/29 06:28:25;;;;;;;1.05;0.10;;;;;;;19.79;37.78;100129.64;1674498;85;21117;-71
2022/05/29 06:30:51;;;;;;;0.40;0.10;;;;;;;19.74;38.08;100128.23;1673669;85;21016;-69
2022/05/29 06:33:17;;;;;;;0.50;0.20;;;;;;;19.81;37.33;100134.27;1663554;84;21521;-70
2022/05/29 06:35:43;;;;;;;1.57;0.50;;;;;;;19.92;37.84;100140.60;1633899;87;21117;-69
2022/05/29 06:38:10;;;;;;;;;;;;;;;19.81;37.17;100149.13;1611669;87;21560;-70
2022/05/29 06:40:42;;;;;;;0.20;0.10;;;;;;;19.57;38.07;100148.05;1609294;87;20153;-71
2022/05/29 06:43:07;;;;;;;1.32;0.15;;;;;;;19.67;38.19;100146.53;1605865;88;21177;-74
2022/05/29 06:45:33;;;;;;;0.72;0.20;;;;;;;19.98;38.65;100148.50;1632750;87;21582;-70
2022/05/29 06:48:01;;;;;;;0.55;0.10;;;;;;;20.39;35.40;100152.13;1644551;85;21060;-71
2022/05/29 06:50:28;;;;;;;0.70;0.33;;;;;;;20.54;35.53;100150.09;1648198;85;21127;-69
2022/05/29 06:52:54;;;;;;;0.85;0.20;;;;;;;20.60;34.81;100149.07;1645255;85;21094;-69
2022/05/29 06:55:23;;;;;;;0.20;0.10;;;;;;;20.42;35.69;100147.02;1632630;85;21579;-71
2022/05/29 06:57:51;;;;;;;0.55;0.10;;;;;;;20.51;35.67;100146.53;1656921;85;21645;-72
2022/05/29 07:08:45;;;;;;;2.25;0.33;;;;;;;21.44;33.88;100146.06;1661906;84;20997;-71
2022/05/29 07:11:18;;;;;;;1.27;0.10;;;;;;;21.30;33.50;100152.47;1673817;84;21559;-70
2022/05/29 07:13:44;;;;;;;1.02;0.10;;;;;;;21.19;33.80;100155.69;1671845;84;20959;-71
2022/05/29 07:16:10;;;;;;;0.40;0.10;;;;;;;21.02;34.24;100155.05;1664352;83;21014;-70
2022/05/29 07:18:37;;;;;;;0.53;0.10;;;;;;;20.99;34.53;100155.57;1665732;84;21102;-71
2022/05/29 07:21:05;;;;;;;;;;;;;;;21.04;34.57;100155.61;1666046;84;21542;-70
2022/05/29 07:23:32;;;;;;;0.70;0.10;;;;;;;21.27;34.96;100156.27;1696612;83;20133;-73
2022/05/29 07:25:58;;;;;;;1.15;0.20;;;;;;;21.34;34.28;100148.17;1706393;82;21003;-71
2022/05/29 07:28:25;;;;;;;0.70;0.10;;;;;;;21.23;34.14;100152.43;1707471;82;20982;-70
2022/05/29 07:30:54;;;;;;;0.40;0.10;;;;;;;21.20;34.48;100153.78;1703131;82;21055;-71
2022/05/29 07:33:20;;;;;;;0.50;0.10;;;;;;;21.36;34.12;100158.73;1699845;82;21057;-71
2022/05/29 07:35:46;;;;;;;0.55;0.10;;;;;;;21.42;34.11;100154.98;1678612;84;21082;-71
2022/05/29 07:38:13;;;;;;;2.22;0.10;;;;;;;21.33;34.58;100160.08;1671986;84;21046;-71
2022/05/29 07:40:39;;;;;;;0.37;0.20;;;;;;;21.27;34.47;100154.37;1684276;84;21049;-70
2022/05/29 07:43:22;;;;;;;0.42;0.10;;;;;;;21.12;34.82;100158.36;1677051;84;21152;-73
2022/05/29 07:46:00;;;;;;;0.78;0.20;;;;;;;20.93;35.11;100158.78;1674630;84;21077;-71
2022/05/29 07:48:28;;;;;;;0.28;0.10;;;;;;;20.63;35.24;100158.04;1679526;84;21042;-76
2022/05/29 07:50:55;;;;;;;0.50;0.10;;;;;;;20.41;35.77;100154.84;1669947;84;21050;-71
2022/05/29 07:53:21;;;;;;;1.45;0.25;;;;;;;20.28;35.65;100155.27;1673030;84;21046;-74
2022/05/29 07:55:48;;;;;;;0.75;0.20;;;;;;;20.16;35.21;100162.76;1663505;84;21112;-71
2022/05/29 07:58:16;;;;;;;;;;;;;;;20.05;36.78;100152.91;1673089;84;21038;-70
2022/05/29 08:00:44;;;;;;;0.10;0.03;;;;;;;19.93;36.20;100153.03;1681048;83;20131;-70
2022/05/29 08:03:10;;;;;;;0.10;0.00;;;;;;;19.75;36.46;100160.98;1677065;83;21078;-70
2022/05/29 08:05:38;;;;;;;0.82;0.10;;;;;;;19.70;36.21;100158.98;1682918;83;21003;-71
2022/05/29 08:08:08;;;;;;;0.30;0.00;;;;;;;19.71;36.09;100154.41;1678448;83;21114;-71
2022/05/29 08:10:37;;;;;;;3.30;0.00;;;;;;;19.60;35.53;100153.47;1681444;83;21002;-72
2022/05/29 08:13:04;;;;;;;3.58;0.20;;;;;;;19.42;36.02;100165.41;1676908;84;21146;-71
2022/05/29 08:15:32;;;;;;;0.40;0.40;;;;;;;19.28;36.62;100160.11;1662608;84;21117;-71
2022/05/29 08:18:00;;;;;;;0.60;0.20;;;;;;;19.26;37.02;100165.21;1650839;84;21539;-72
2022/05/29 08:20:27;;;;;;;0.85;0.20;;;;;;;19.34;37.07;100167.20;1655974;84;21068;-71
2022/05/29 08:22:53;;;;;;;1.50;0.10;;;;;;;19.48;36.82;100164.42;1673044;83;21061;-70
2022/05/29 08:30:54;;;;;;;1.10;0.20;;;;;;;19.58;36.26;100171.30;1665149;84;21453;-71
2022/05/29 08:33:32;;;;;;;0.70;0.10;;;;;;;19.63;35.66;100178.66;1672799;82;21519;-79
2022/05/29 08:36:07;;;;;;;1.70;0.10;;;;;;;19.68;36.00;100169.23;1661785;84;21023;-73
2022/05/29 08:38:38;;;;;;;1.85;0.55;;;;;;;19.75;34.54;100173.14;1671088;84;21087;-72
2022/05/29 08:41:09;;;;;;;0.53;0.28;;;;;;;19.76;35.04;100178.30;1659619;84;21206;-72
2022/05/29 08:43:47;;;;;;;0.45;0.10;;;;;;;19.72;34.78;100182.59;1667481;84;21095;-73
2022/05/29 08:46:18;;;;;;;0.10;0.10;;;;;;;19.72;34.44;100184.42;1674700;83;21004;-70
2022/05/29 08:48:46;;;;;;;0.57;0.10;;;;;;;19.63;34.86;100184.07;1690775;83;20992;-70
2022/05/29 08:51:41;;;;;;;1.60;0.20;;;;;;;19.62;34.85;100181.07;1681954;83;21523;-71
2022/05/29 08:54:17;;;;;;;0.55;0.10;;;;;;;19.58;35.34;100176.70;1639510;85;21536;-73
2022/05/29 08:56:52;;;;;;;0.55;0.10;;;;;;;19.59;34.86;100178.86;1694034;83;21444;-72
2022/05/29 08:59:24;;;;;;;0.75;0.10;;;;;;;19.54;35.43;100172.87;1655297;85;21029;-71
2022/05/29 09:02:01;;;;;;;4.05;0.30;;;;;;;19.60;34.70;100169.70;1676365;83;21094;-77
2022/05/29 09:04:36;;;;;;;0.95;0.10;;;;;;;19.68;34.74;100171.13;1647620;84;21041;-71
2022/05/29 09:07:06;;;;;;;0.57;0.10;;;;;;;19.77;34.51;100168.30;1653637;84;21036;-72
2022/05/29 09:09:57;;;;;;;1.85;0.10;;;;;;;19.80;34.53;100168.61;1650096;84;21571;-71
2022/05/29 09:12:34;;;;;;;0.30;0.00;;;;;;;19.78;34.42;100167.23;1666637;82;21019;-70
2022/05/29 09:15:24;;;;;;;0.10;0.00;;;;;;;19.76;34.47;100163.95;1655526;84;21371;-74
2022/05/29 09:18:25;;;;;;;0.95;0.10;;;;;;;19.74;34.13;100170.98;1659875;84;21004;-70
2022/05/29 09:21:00;;;;;;;0.30;0.00;;;;;;;19.71;32.83;100161.17;1660655;84;21329;-73
2022/05/29 09:23:31;;;;;;;2.20;0.10;;;;;;;19.59;32.12;100168.05;1667482;82;21607;-71
2022/05/29 09:25:58;;;;;;;0.10;0.10;;;;;;;19.47;32.70;100164.67;1672655;84;21183;-71
2022/05/29 09:28:35;;;;;;;1.27;0.10;;;;;;;19.35;33.29;100168.31;1671030;84;21036;-72
2022/05/29 09:31:20;;;;;;;0.53;0.10;;;;;;;19.35;33.34;100166.96;1672400;84;21000;-73
2022/05/29 09:33:48;;;;;;;0.10;0.00;;;;;;;19.34;32.56;100165.31;1659877;84;21516;-71
2022/05/29 09:36:25;;;;;;;0.25;0.03;;;;;;;19.33;33.53;100169.09;1673211;84;21571;-72
2022/05/29 09:38:57;;;;;;;0.20;0.10;;;;;;;19.39;33.22;100166.73;1670459;84;21028;-73
2022/05/29 09:41:42;;;;;;;0.20;0.00;;;;;;;19.48;33.55;100163.07;1668085;84;21131;-71
2022/05/29 09:44:17;;;;;;;0.90;0.10;;;;;;;19.54;33.61;100168.81;1662747;83;21060;-72
2022/05/29 09:46:48;;;;;;;0.42;0.13;;;;;;;19.54;33.63;100178.82;1671561;83;21071;-69
2022/05/29 09:49:41;;;;;;;0.20;0.00;;;;;;;19.52;33.66;100165.55;1689583;83;20999;-71
2022/05/29 09:52:16;;;;;;;0.40;0.10;;;;;;;19.52;33.43;100168.25;1687546;83;20992;-70
2022/05/29 09:55:03;;;;;;;1.02;0.20;;;;;;;19.55;33.01;100160.16;1635611;85;21105;-71
2022/05/29 09:57:34;;;;;;;3.10;0.20;;;;;;;19.56;33.23;100166.67;1674122;83;21071;-71
2022/05/29 10:00:12;;;;;;;0.23;0.08;;;;;;;19.64;33.34;100157.30;1645151;85;21022;-72
2022/05/29 10:02:45;;;;;;;1.90;0.10;;;;;;;19.72;33.01;100157.38;1686080;83;21111;-69
2022/05/29 10:05:33;;;;;;;0.20;0.00;;;;;;;19.74;32.61;100159.33;1695926;83;21055;-70
2022/05/29 10:08:31;;;;;;;0.03;0.00;;;;;;;19.67;33.02;100164.11;1688685;83;21492;-72
2022/05/29 10:11:22;;;;;;;0.10;0.10;;;;;;;19.68;33.01;100167.89;1708489;82;21949;-72
2022/05/29 10:13:51;;;;;;;0.28;0.00;;;;;;;19.73;32.06;100165.28;1683312;83;21580;-70
2022/05/29 10:16:35;;;;;;;0.40;0.10;;;;;;;19.76;31.59;100163.44;1691237;83;21007;-70
2022/05/29 10:19:03;;;;;;;0.10;0.00;;;;;;;19.84;31.71;100159.45;1686651;83;21099;-70
2022/05/29 10:21:32;;;;;;;0.20;0.10;;;;;;;19.93;31.76;100166.05;1693340;83;21024;-73
2022/05/29 10:24:24;;;;;;;2.95;0.00;;;;;;;19.96;32.12;100166.88;1668801;83;21106;-70
2022/05/29 10:26:56;;;;;;;0.10;0.00;;;;;;;20.00;32.53;100166.67;1605708;88;21499;-70
2022/05/29 10:29:30;;;;;;;1.07;0.00;;;;;;;20.07;32.11;100168.34;1618815;86;21560;-71
2022/05/29 10:32:00;;;;;;;1.45;0.10;;;;;;;20.03;31.60;100159.92;1639836;85;21366;-72
2022/05/29 10:34:40;;;;;;;0.30;0.08;;;;;;;20.01;31.29;100169.64;1692791;83;20990;-69
2022/05/29 10:37:39;;;;;;;0.33;0.00;;;;;;;20.07;31.05;100165.64;1692158;83;21054;-71
2022/05/29 10:40:26;;;;;;;0.10;0.00;;;;;;;20.19;30.95;100167.13;1677774;83;21570;-76
2022/05/29 10:43:00;;;;;;;1.65;0.00;;;;;;;20.34;30.23;100172.37;1691634;83;21000;-71
2022/05/29 10:45:47;;;;;;;0.90;0.08;;;;;;;20.45;30.29;100166.52;1685682;82;21027;-71
2022/05/29 10:48:45;;;;;;;1.98;0.08;;;;;;;20.58;30.42;100166.09;1729616;82;21006;-71
2022/05/29 10:51:24;;;;;;;;;;;;;;;20.65;29.93;100170.78;1712760;82;21435;-70
2022/05/29 10:53:59;;;;;;;0.42;0.10;;;;;;;20.67;30.57;100167.82;1709275;82;20482;-71
2022/05/29 10:56:46;;;;;;;0.10;0.00;;;;;;;20.62;30.81;100169.94;1699738;82;21033;-70
2022/05/29 10:59:30;;;;;;;0.62;0.10;;;;;;;20.68;30.87;100162.15;1718065;82;21125;-71
2022/05/29 11:05:28;;;;;;;0.28;0.08;;;;;;;20.80;30.44;100161.95;1714407;82;21062;-74
2022/05/29 11:08:32;;;;;;;0.78;0.00;;;;;;;20.83;28.82;100157.89;1723140;82;21065;-72
2022/05/29 11:11:32;;;;;;;1.35;0.00;;;;;;;20.82;28.89;100164.41;1702715;82;21639;-71
2022/05/29 11:14:28;;;;;;;1.85;0.20;;;;;;;20.78;29.32;100160.05;1717121;82;20998;-70
2022/05/29 11:17:22;;;;;;;0.10;0.10;;;;;;;20.78;29.69;100160.05;1713362;82;21114;-70
2022/05/29 11:20:21;;;;;;;0.30;0.00;;;;;;;20.79;29.56;100161.14;1675685;82;21066;-70
2022/05/29 11:23:23;;;;;;;0.50;0.10;;;;;;;20.85;28.93;100153.03;1669565;82;21057;-72
2022/05/29 11:26:04;;;;;;;5.62;0.00;;;;;;;20.86;28.86;100154.67;1700878;83;21574;-70
2022/05/29 11:28:59;;;;;;;0.68;0.13;;;;;;;20.88;28.98;100153.88;1698361;82;21030;-71
2022/05/29 11:31:53;;;;;;;0.10;0.10;;;;;;;20.92;28.97;100151.72;1695440;82;21065;-73
2022/05/29 11:34:46;;;;;;;1.37;0.10;;;;;;;20.92;28.81;100148.20;1713658;82;21041;-71
2022/05/29 11:37:32;;;;;;;0.62;0.10;;;;;;;20.87;28.59;100149.52;1708645;82;21049;-73
2022/05/29 11:40:26;;;;;;;1.60;0.28;;;;;;;20.82;28.63;100150.31;1700070;82;21090;-73
2022/05/29 11:43:45;;;;;;;0.10;0.00;;;;;;;20.72;28.74;100148.87;1708548;82;21030;-72
2022/05/29 11:52:38;;;;;;;0.30;0.23;;;;;;;20.33;28.52;100144.50;1708096;82;20998;-74
2022/05/29 11:55:15;;;;;;;0.10;0.00;;;;;;;20.27;28.31;100155.02;1712448;82;21530;-73
2022/05/29 11:58:06;;;;;;;0.47;0.10;;;;;;;20.25;28.64;100159.87;1712778;82;21153;-73
2022/05/29 12:00:39;;;;;;;0.15;0.10;;;;;;;20.26;28.97;100153.36;1706785;82;21045;-76
2022/05/29 12:03:29;;;;;;;0.10;0.00;;;;;;;20.29;28.89;100147.99;1697070;82;21061;-73
2022/05/29 12:06:19;;;;;;;0.00;0.00;;;;;;;20.31;28.48;100152.61;1712505;82;21093;-71
2022/05/29 12:09:05;;;;;;;0.17;0.00;;;;;;;20.27;28.41;100140.64;1701603;82;21618;-71
2022/05/29 12:11:49;;;;;;;0.62;0.05;;;;;;;20.15;29.07;100144.88;1716626;82;21049;-75
2022/05/29 12:14:42;;;;;;;1.52;0.10;;;;;;;20.08;28.98;100142.91;1716527;82;21129;-72
2022/05/29 12:17:31;;;;;;;0.10;0.10;;;;;;;20.09;29.11;100140.50;1716463;82;21032;-71
2022/05/29 12:20:25;;;;;;;2.05;0.13;;;;;;;20.14;29.03;100140.55;1719416;82;21128;-72
2022/05/29 12:23:00;;;;;;;0.42;0.10;;;;;;;20.17;28.37;100139.51;1710317;82;21033;-72
2022/05/29 12:25:47;;;;;;;1.55;0.10;;;;;;;20.15;28.41;100139.46;1715155;82;21112;-72
2022/05/29 12:28:23;;;;;;;;;;;;;;;20.17;28.52;100135.45;1710891;82;20999;-72
2022/05/29 12:30:50;;;;;;;0.23;0.00;;;;;;;20.21;27.91;100141.13;1712502;82;20131;-71
2022/05/29 12:33:22;;;;;;;0.57;0.30;;;;;;;20.18;28.14;100145.18;1715015;82;21523;-72
2022/05/29 12:36:24;;;;;;;2.30;0.50;;;;;;;20.25;28.09;100145.50;1697232;82;21066;-72